sensor_id;sensor_type;location;lat;lon;timestamp;pressure;altitude;pressure_sealevel;temperature;humidity
62976;BME280;49071;0.000;0.000;2023-02-24T06:17:08;99993.69;;;16.53;37.81
62976;BME280;49071;0.000;0.000;2023-02-24T06:20:08;99984.25;;;16.51;37.68
62976;BME280;49071;0.000;0.000;2023-02-24T06:23:14;99989.53;;;16.49;37.78
62976;BME280;49071;0.000;0.000;2023-02-24T06:26:16;99988.78;;;16.47;37.77
62976;BME280;49071;0.000;0.000;2023-02-24T06:29:18;99985.34;;;16.47;37.95
62976;BME280;49071;0.000;0.000;2023-02-24T06:32:23;99975.75;;;16.46;37.92
62976;BME280;49071;0.000;0.000;2023-02-24T06:35:24;99973.47;;;16.40;38.01
62976;BME280;49071;0.000;0.000;2023-02-24T06:38:24;99985.00;;;16.36;38.29
62976;BME280;49071;0.000;0.000;2023-02-24T06:41:24;99967.94;;;16.28;38.24
62976;BME280;49071;0.000;0.000;2023-02-24T06:44:28;99963.69;;;16.26;38.28
62976;BME280;49071;0.000;0.000;2023-02-24T06:47:29;99969.78;;;16.26;38.47
62976;BME280;49071;0.000;0.000;2023-02-24T06:50:29;99965.84;;;16.35;38.37
62976;BME280;49071;0.000;0.000;2023-02-24T06:53:31;99967.06;;;16.45;38.50
62976;BME280;49071;0.000;0.000;2023-02-24T06:56:34;99966.13;;;16.64;37.78
62976;BME280;49071;0.000;0.000;2023-02-24T06:59:37;99964.41;;;16.80;37.61
62976;BME280;49071;0.000;0.000;2023-02-24T07:02:38;99965.13;;;16.99;37.50
62976;BME280;49071;0.000;0.000;2023-02-24T07:05:46;99958.91;;;17.18;37.33
62976;BME280;49071;0.000;0.000;2023-02-24T07:08:49;99958.53;;;17.40;36.94
62976;BME280;49071;0.000;0.000;2023-02-24T07:11:51;99960.81;;;17.62;36.66
62976;BME280;49071;0.000;0.000;2023-02-24T07:14:52;99953.53;;;17.83;36.60
62976;BME280;49071;0.000;0.000;2023-02-24T07:17:52;99951.06;;;17.96;36.70
62976;BME280;49071;0.000;0.000;2023-02-24T07:20:53;99936.25;;;18.09;36.29
62976;BME280;49071;0.000;0.000;2023-02-24T07:23:53;99933.94;;;18.18;36.31
62976;BME280;49071;0.000;0.000;2023-02-24T07:26:57;99932.72;;;18.24;36.12
62976;BME280;49071;0.000;0.000;2023-02-24T07:29:57;99930.94;;;18.25;36.54
62976;BME280;49071;0.000;0.000;2023-02-24T07:32:58;99936.13;;;18.26;35.90
62976;BME280;49071;0.000;0.000;2023-02-24T07:35:58;99924.00;;;18.24;36.15
62976;BME280;49071;0.000;0.000;2023-02-24T07:38:58;99916.97;;;18.24;36.14
62976;BME280;49071;0.000;0.000;2023-02-24T07:42:00;99904.03;;;18.21;36.67
62976;BME280;49071;0.000;0.000;2023-02-24T07:45:00;99898.97;;;18.18;36.68
62976;BME280;49071;0.000;0.000;2023-02-24T07:48:01;99894.66;;;18.17;36.43
62976;BME280;49071;0.000;0.000;2023-02-24T07:51:09;99897.38;;;18.15;36.73
62976;BME280;49071;0.000;0.000;2023-02-24T07:54:09;99889.91;;;18.24;37.07
62976;BME280;49071;0.000;0.000;2023-02-24T07:57:10;99889.25;;;18.34;36.60
62976;BME280;49071;0.000;0.000;2023-02-24T08:00:13;99888.22;;;18.51;36.59
62976;BME280;49071;0.000;0.000;2023-02-24T08:03:19;99883.88;;;18.64;36.35
62976;BME280;49071;0.000;0.000;2023-02-24T08:06:22;99876.13;;;18.77;36.37
62976;BME280;49071;0.000;0.000;2023-02-24T08:09:27;99878.56;;;18.80;35.96
62976;BME280;49071;0.000;0.000;2023-02-24T08:13:05;99869.09;;;18.78;36.12
62976;BME280;49071;0.000;0.000;2023-02-24T08:16:06;99869.16;;;18.76;35.80
62976;BME280;49071;0.000;0.000;2023-02-24T08:19:07;99863.34;;;18.71;35.71
62976;BME280;49071;0.000;0.000;2023-02-24T08:22:12;99860.91;;;18.68;35.99
62976;BME280;49071;0.000;0.000;2023-02-24T08:25:25;99855.09;;;18.63;36.07
62976;BME280;49071;0.000;0.000;2023-02-24T08:28:34;99847.69;;;18.55;36.14
62976;BME280;49071;0.000;0.000;2023-02-24T08:31:34;99843.88;;;18.47;35.90
62976;BME280;49071;0.000;0.000;2023-02-24T08:34:34;99837.19;;;18.41;36.16
62976;BME280;49071;0.000;0.000;2023-02-24T08:37:35;99833.81;;;18.39;36.38
62976;BME280;49071;0.000;0.000;2023-02-24T08:40:47;99830.72;;;18.32;36.71
62976;BME280;49071;0.000;0.000;2023-02-24T08:43:50;99824.09;;;18.27;36.53
62976;BME280;49071;0.000;0.000;2023-02-24T08:46:50;99814.59;;;18.24;36.58
62976;BME280;49071;0.000;0.000;2023-02-24T08:49:51;99813.78;;;18.24;36.51
62976;BME280;49071;0.000;0.000;2023-02-24T08:52:52;99809.34;;;18.24;36.45
62976;BME280;49071;0.000;0.000;2023-02-24T08:55:52;99803.28;;;18.24;36.50
62976;BME280;49071;0.000;0.000;2023-02-24T08:58:54;99805.91;;;18.24;36.28
62976;BME280;49071;0.000;0.000;2023-02-24T09:01:56;99784.41;;;18.31;36.24
62976;BME280;49071;0.000;0.000;2023-02-24T09:05:16;99778.78;;;18.37;36.29
62976;BME280;49071;0.000;0.000;2023-02-24T09:08:16;99776.50;;;18.46;36.18
62976;BME280;49071;0.000;0.000;2023-02-24T09:11:23;99772.59;;;18.53;36.30
62976;BME280;49071;0.000;0.000;2023-02-24T09:14:27;99771.13;;;18.61;35.99
62976;BME280;49071;0.000;0.000;2023-02-24T09:17:28;99765.31;;;18.71;35.93
62976;BME280;49071;0.000;0.000;2023-02-24T09:20:51;99758.44;;;18.82;35.73
62976;BME280;49071;0.000;0.000;2023-02-24T09:24:10;99763.84;;;18.94;35.89
62976;BME280;49071;0.000;0.000;2023-02-24T09:27:11;99758.94;;;19.02;35.65
62976;BME280;49071;0.000;0.000;2023-02-24T09:30:16;99751.81;;;19.04;35.28
62976;BME280;49071;0.000;0.000;2023-02-24T09:33:35;99755.16;;;19.06;35.44
62976;BME280;49071;0.000;0.000;2023-02-24T09:36:40;99746.63;;;19.02;35.34
62976;BME280;49071;0.000;0.000;2023-02-24T09:40:00;99743.16;;;19.02;35.50
62976;BME280;49071;0.000;0.000;2023-02-24T09:43:32;99737.38;;;18.97;35.30
62976;BME280;49071;0.000;0.000;2023-02-24T09:46:44;99738.41;;;18.94;35.57
62976;BME280;49071;0.000;0.000;2023-02-24T09:49:52;99726.50;;;18.88;35.65
62976;BME280;49071;0.000;0.000;2023-02-24T09:52:58;99733.13;;;18.81;35.60
62976;BME280;49071;0.000;0.000;2023-02-24T09:56:33;99723.13;;;18.74;35.69
62976;BME280;49071;0.000;0.000;2023-02-24T09:59:55;99712.13;;;18.67;35.94
62976;BME280;49071;0.000;0.000;2023-02-24T10:03:37;99717.84;;;18.59;35.71
62976;BME280;49071;0.000;0.000;2023-02-24T10:06:54;99709.75;;;18.50;36.09
62976;BME280;49071;0.000;0.000;2023-02-24T10:09:59;99712.00;;;18.41;35.89
62976;BME280;49071;0.000;0.000;2023-02-24T10:13:18;99701.06;;;18.35;36.29
62976;BME280;49071;0.000;0.000;2023-02-24T10:16:29;99692.44;;;18.33;36.07
62976;BME280;49071;0.000;0.000;2023-02-24T10:19:40;99692.53;;;18.31;36.59
62976;BME280;49071;0.000;0.000;2023-02-24T10:22:48;99690.75;;;18.32;36.61
62976;BME280;49071;0.000;0.000;2023-02-24T10:25:56;99684.28;;;18.37;36.51
62976;BME280;49071;0.000;0.000;2023-02-24T10:32:38;99668.97;;;18.44;36.05
62976;BME280;49071;0.000;0.000;2023-02-24T10:35:42;99664.25;;;18.49;36.19
62976;BME280;49071;0.000;0.000;2023-02-24T10:38:43;99657.75;;;18.55;36.14
62976;BME280;49071;0.000;0.000;2023-02-24T10:41:53;99654.53;;;18.64;35.72
62976;BME280;49071;0.000;0.000;2023-02-24T10:45:05;99645.16;;;18.74;35.65
62976;BME280;49071;0.000;0.000;2023-02-24T10:48:28;99640.00;;;18.85;35.54
62976;BME280;49071;0.000;0.000;2023-02-24T10:51:31;99632.16;;;18.98;35.76
62976;BME280;49071;0.000;0.000;2023-02-24T10:54:32;99632.38;;;19.08;35.72
62976;BME280;49071;0.000;0.000;2023-02-24T10:57:32;99621.00;;;19.20;35.47
62976;BME280;49071;0.000;0.000;2023-02-24T11:00:46;99610.28;;;19.36;35.14
62976;BME280;49071;0.000;0.000;2023-02-24T11:04:10;99616.69;;;19.45;35.20
62976;BME280;49071;0.000;0.000;2023-02-24T11:07:21;99597.34;;;19.46;35.03
62976;BME280;49071;0.000;0.000;2023-02-24T11:10:35;99593.03;;;19.45;35.44
62976;BME280;49071;0.000;0.000;2023-02-24T11:13:52;99590.50;;;19.43;35.44
62976;BME280;49071;0.000;0.000;2023-02-24T11:17:21;99579.56;;;19.37;35.59
62976;BME280;49071;0.000;0.000;2023-02-24T11:20:29;99574.84;;;19.29;35.58
62976;BME280;49071;0.000;0.000;2023-02-24T11:23:45;99577.81;;;19.24;35.40
62976;BME280;49071;0.000;0.000;2023-02-24T11:26:47;99567.81;;;19.17;35.43
62976;BME280;49071;0.000;0.000;2023-02-24T11:33:31;99545.56;;;18.97;35.74
62976;BME280;49071;0.000;0.000;2023-02-24T11:36:38;99541.63;;;18.90;35.81
62976;BME280;49071;0.000;0.000;2023-02-24T11:39:43;99519.34;;;18.82;35.96
62976;BME280;49071;0.000;0.000;2023-02-24T11:42:56;99512.97;;;18.74;35.79
62976;BME280;49071;0.000;0.000;2023-02-24T11:46:58;99507.25;;;18.67;35.91
62976;BME280;49071;0.000;0.000;2023-02-24T11:49:32;99501.56;;;18.60;36.30
62976;BME280;49071;0.000;0.000;2023-02-24T11:52:37;99492.22;;;18.56;36.18
62976;BME280;49071;0.000;0.000;2023-02-24T11:55:40;99475.59;;;18.56;36.10
62976;BME280;49071;0.000;0.000;2023-02-24T11:58:42;99479.09;;;18.56;36.06
62976;BME280;49071;0.000;0.000;2023-02-24T12:01:49;99480.88;;;18.56;36.06
62976;BME280;49071;0.000;0.000;2023-02-24T12:04:54;99470.16;;;18.59;36.27
62976;BME280;49071;0.000;0.000;2023-02-24T12:11:06;99463.66;;;18.64;36.13
62976;BME280;49071;0.000;0.000;2023-02-24T12:14:20;99457.22;;;18.69;35.81
62976;BME280;49071;0.000;0.000;2023-02-24T12:20:31;99444.97;;;18.82;35.94
62976;BME280;49071;0.000;0.000;2023-02-24T12:23:36;99424.97;;;18.92;35.67
62976;BME280;49071;0.000;0.000;2023-02-24T12:26:40;99432.31;;;19.00;35.51
62976;BME280;49071;0.000;0.000;2023-02-24T12:33:04;99416.50;;;19.25;35.43
62976;BME280;49071;0.000;0.000;2023-02-24T12:39:28;99410.56;;;19.34;35.39
62976;BME280;49071;0.000;0.000;2023-02-24T12:42:34;99395.72;;;19.33;35.27
62976;BME280;49071;0.000;0.000;2023-02-24T12:45:42;99395.84;;;19.32;35.35
62976;BME280;49071;0.000;0.000;2023-02-24T12:48:51;99385.69;;;19.27;35.42
62976;BME280;49071;0.000;0.000;2023-02-24T12:55:29;99375.69;;;19.20;35.30
62976;BME280;49071;0.000;0.000;2023-02-24T12:58:35;99369.13;;;19.14;35.41
62976;BME280;49071;0.000;0.000;2023-02-24T13:01:40;99364.38;;;19.06;35.37
62976;BME280;49071;0.000;0.000;2023-02-24T13:11:36;99358.88;;;18.85;35.64
62976;BME280;49071;0.000;0.000;2023-02-24T13:14:22;99358.59;;;18.77;35.69
62976;BME280;49071;0.000;0.000;2023-02-24T13:17:24;99358.16;;;18.71;35.84
62976;BME280;49071;0.000;0.000;2023-02-24T13:23:26;99359.97;;;18.57;35.79
62976;BME280;49071;0.000;0.000;2023-02-24T13:26:27;99347.69;;;18.58;36.09
62976;BME280;49071;0.000;0.000;2023-02-24T13:29:28;99356.41;;;18.58;36.24
62976;BME280;49071;0.000;0.000;2023-02-24T13:32:35;99347.47;;;18.61;36.00
62976;BME280;49071;0.000;0.000;2023-02-24T13:35:35;99342.72;;;18.66;35.78
62976;BME280;49071;0.000;0.000;2023-02-24T13:38:37;99345.13;;;18.69;35.93
62976;BME280;49071;0.000;0.000;2023-02-24T13:41:38;99336.13;;;18.73;35.88
62976;BME280;49071;0.000;0.000;2023-02-24T13:44:46;99335.69;;;18.79;35.97
62976;BME280;49071;0.000;0.000;2023-02-24T14:00:24;99325.31;;;19.26;35.15
62976;BME280;49071;0.000;0.000;2023-02-24T14:03:27;99319.03;;;19.40;35.28
62976;BME280;49071;0.000;0.000;2023-02-24T14:06:28;99319.53;;;19.45;35.26
62976;BME280;49071;0.000;0.000;2023-02-24T14:09:32;99324.69;;;19.46;35.18
62976;BME280;49071;0.000;0.000;2023-02-24T14:12:33;99311.91;;;19.53;35.15
62976;BME280;49071;0.000;0.000;2023-02-24T14:15:34;99312.25;;;19.48;35.22
62976;BME280;49071;0.000;0.000;2023-02-24T14:18:34;99302.06;;;19.44;35.22
62976;BME280;49071;0.000;0.000;2023-02-24T14:21:36;99296.34;;;19.39;35.37
62976;BME280;49071;0.000;0.000;2023-02-24T14:24:36;99285.44;;;19.32;35.44
62976;BME280;49071;0.000;0.000;2023-02-24T14:27:36;99294.44;;;19.17;35.40
62976;BME280;49071;0.000;0.000;2023-02-24T14:30:38;99293.34;;;19.08;35.71
62976;BME280;49071;0.000;0.000;2023-02-24T14:33:40;99277.88;;;19.03;35.70
62976;BME280;49071;0.000;0.000;2023-02-24T14:36:42;99276.44;;;18.99;35.35
62976;BME280;49071;0.000;0.000;2023-02-24T14:39:54;99266.38;;;18.93;35.72
62976;BME280;49071;0.000;0.000;2023-02-24T14:42:54;99266.94;;;18.85;36.00
62976;BME280;49071;0.000;0.000;2023-02-24T14:45:56;99263.00;;;18.80;35.64
62976;BME280;49071;0.000;0.000;2023-02-24T14:48:56;99253.84;;;18.73;35.95
62976;BME280;49071;0.000;0.000;2023-02-24T14:51:58;99249.03;;;18.67;36.07
62976;BME280;49071;0.000;0.000;2023-02-24T15:01:03;99235.16;;;18.64;36.01
62976;BME280;49071;0.000;0.000;2023-02-24T15:04:12;99230.66;;;18.67;36.28
62976;BME280;49071;0.000;0.000;2023-02-24T15:10:17;99229.28;;;18.74;36.21
62976;BME280;49071;0.000;0.000;2023-02-24T15:13:33;99219.25;;;18.79;36.28
62976;BME280;49071;0.000;0.000;2023-02-24T15:19:36;99206.28;;;18.88;35.92
62976;BME280;49071;0.000;0.000;2023-02-24T15:22:46;99200.59;;;18.95;35.89
62976;BME280;49071;0.000;0.000;2023-02-24T15:25:47;99196.34;;;19.05;35.92
62976;BME280;49071;0.000;0.000;2023-02-24T15:28:47;99188.22;;;19.08;35.59
62976;BME280;49071;0.000;0.000;2023-02-24T15:31:55;99183.56;;;19.11;35.86
62976;BME280;49071;0.000;0.000;2023-02-24T15:34:56;99179.03;;;19.14;35.59
62976;BME280;49071;0.000;0.000;2023-02-24T15:37:57;99178.31;;;19.11;35.78
62976;BME280;49071;0.000;0.000;2023-02-24T15:40:59;99172.31;;;19.09;35.63
62976;BME280;49071;0.000;0.000;2023-02-24T15:44:01;99177.94;;;19.05;35.57
62976;BME280;49071;0.000;0.000;2023-02-24T15:48:02;99167.88;;;18.99;35.64
62976;BME280;49071;0.000;0.000;2023-02-24T15:50:33;99151.13;;;18.88;35.95
62976;BME280;49071;0.000;0.000;2023-02-24T15:53:36;99152.91;;;18.88;36.01
62976;BME280;49071;0.000;0.000;2023-02-24T15:56:37;99144.22;;;18.87;35.74
62976;BME280;49071;0.000;0.000;2023-02-24T15:59:38;99135.72;;;18.84;36.23
62976;BME280;49071;0.000;0.000;2023-02-24T16:02:39;99134.28;;;18.80;36.34
62976;BME280;49071;0.000;0.000;2023-02-24T16:05:40;99132.19;;;18.72;36.46
62976;BME280;49071;0.000;0.000;2023-02-24T16:08:40;99128.22;;;18.67;36.42
62976;BME280;49071;0.000;0.000;2023-02-24T16:11:44;99129.38;;;18.62;36.72
62976;BME280;49071;0.000;0.000;2023-02-24T16:14:45;99120.19;;;18.57;36.69
62976;BME280;49071;0.000;0.000;2023-02-24T16:17:47;99116.00;;;18.54;36.96
62976;BME280;49071;0.000;0.000;2023-02-24T16:20:47;99109.91;;;18.54;36.97
62976;BME280;49071;0.000;0.000;2023-02-24T16:23:53;99108.00;;;18.56;36.87
62976;BME280;49071;0.000;0.000;2023-02-24T16:26:53;99106.84;;;18.60;37.12
62976;BME280;49071;0.000;0.000;2023-02-24T16:29:53;99106.47;;;18.64;36.83
62976;BME280;49071;0.000;0.000;2023-02-24T16:32:54;99100.69;;;18.72;36.63
62976;BME280;49071;0.000;0.000;2023-02-24T16:35:54;99099.63;;;18.75;36.93
62976;BME280;49071;0.000;0.000;2023-02-24T16:38:55;99089.50;;;18.81;36.53
62976;BME280;49071;0.000;0.000;2023-02-24T16:41:55;99091.31;;;18.92;36.87
62976;BME280;49071;0.000;0.000;2023-02-24T16:44:55;99091.69;;;18.99;36.86
62976;BME280;49071;0.000;0.000;2023-02-24T16:47:57;99085.00;;;19.06;36.58
62976;BME280;49071;0.000;0.000;2023-02-24T16:50:57;99083.47;;;19.15;36.43
62976;BME280;49071;0.000;0.000;2023-02-24T16:53:58;99084.78;;;19.20;36.37
62976;BME280;49071;0.000;0.000;2023-02-24T16:56:58;99080.25;;;19.22;36.46
62976;BME280;49071;0.000;0.000;2023-02-24T16:59:58;99078.81;;;19.18;36.19
62976;BME280;49071;0.000;0.000;2023-02-24T17:02:58;99081.06;;;19.23;36.37
62976;BME280;49071;0.000;0.000;2023-02-24T17:05:59;99075.22;;;19.19;36.40
62976;BME280;49071;0.000;0.000;2023-02-24T17:08:59;99070.19;;;19.16;36.37
62976;BME280;49071;0.000;0.000;2023-02-24T17:11:59;99064.34;;;19.13;36.63
62976;BME280;49071;0.000;0.000;2023-02-24T17:15:00;99063.03;;;19.07;36.60
62976;BME280;49071;0.000;0.000;2023-02-24T17:18:00;99055.50;;;19.02;36.63
62976;BME280;49071;0.000;0.000;2023-02-24T17:21:00;99058.34;;;18.99;36.91
62976;BME280;49071;0.000;0.000;2023-02-24T17:24:01;99055.97;;;18.96;36.73
62976;BME280;49071;0.000;0.000;2023-02-24T17:27:01;99053.91;;;18.88;36.84
62976;BME280;49071;0.000;0.000;2023-02-24T17:30:03;99050.09;;;18.81;37.11
62976;BME280;49071;0.000;0.000;2023-02-24T17:33:03;99041.47;;;18.79;36.92
62976;BME280;49071;0.000;0.000;2023-02-24T17:36:03;99032.59;;;18.69;37.15
62976;BME280;49071;0.000;0.000;2023-02-24T17:39:04;99037.69;;;18.59;37.15
62976;BME280;49071;0.000;0.000;2023-02-24T17:42:04;99033.16;;;18.50;36.91
62976;BME280;49071;0.000;0.000;2023-02-24T17:45:05;99023.94;;;18.45;37.26
62976;BME280;49071;0.000;0.000;2023-02-24T17:48:05;99021.44;;;18.43;37.36
62976;BME280;49071;0.000;0.000;2023-02-24T17:51:05;99019.03;;;18.40;37.54
62976;BME280;49071;0.000;0.000;2023-02-24T17:54:05;99021.06;;;18.36;37.61
62976;BME280;49071;0.000;0.000;2023-02-24T17:57:07;99010.56;;;18.36;37.52
62976;BME280;49071;0.000;0.000;2023-02-24T18:00:08;99012.09;;;18.39;37.79
62976;BME280;49071;0.000;0.000;2023-02-24T18:03:09;99004.97;;;18.41;37.81
62976;BME280;49071;0.000;0.000;2023-02-24T18:06:10;99005.47;;;18.46;37.60
62976;BME280;49071;0.000;0.000;2023-02-24T18:09:10;99004.28;;;18.50;37.93
62976;BME280;49071;0.000;0.000;2023-02-24T18:12:10;99002.13;;;18.55;37.96
62976;BME280;49071;0.000;0.000;2023-02-24T18:15:11;99000.84;;;18.61;37.58
62976;BME280;49071;0.000;0.000;2023-02-24T18:18:11;98993.19;;;18.69;37.49
62976;BME280;49071;0.000;0.000;2023-02-24T18:21:11;98990.03;;;18.77;37.54
62976;BME280;49071;0.000;0.000;2023-02-24T18:24:11;98991.09;;;18.85;37.21
62976;BME280;49071;0.000;0.000;2023-02-24T18:27:11;98986.13;;;18.94;37.05
62976;BME280;49071;0.000;0.000;2023-02-24T18:30:12;98984.91;;;18.98;36.96
62976;BME280;49071;0.000;0.000;2023-02-24T18:33:16;98993.41;;;19.01;37.07
62976;BME280;49071;0.000;0.000;2023-02-24T18:36:17;98979.53;;;18.99;36.86
62976;BME280;49071;0.000;0.000;2023-02-24T18:39:17;98974.03;;;19.02;37.18
62976;BME280;49071;0.000;0.000;2023-02-24T18:42:17;98970.72;;;19.00;36.96
62976;BME280;49071;0.000;0.000;2023-02-24T18:45:18;98966.97;;;19.03;37.11
62976;BME280;49071;0.000;0.000;2023-02-24T18:48:18;98962.81;;;19.00;37.19
62976;BME280;49071;0.000;0.000;2023-02-24T18:51:19;98958.03;;;18.94;37.44
62976;BME280;49071;0.000;0.000;2023-02-24T18:54:19;98959.25;;;18.90;37.34
62976;BME280;49071;0.000;0.000;2023-02-24T18:57:20;98952.53;;;18.86;37.13
62976;BME280;49071;0.000;0.000;2023-02-24T19:00:20;98942.25;;;18.83;37.23
62976;BME280;49071;0.000;0.000;2023-02-24T19:03:20;98934.88;;;18.77;37.52
62976;BME280;49071;0.000;0.000;2023-02-24T19:06:21;98931.88;;;18.70;37.60
62976;BME280;49071;0.000;0.000;2023-02-24T19:09:22;98936.84;;;18.62;37.62
62976;BME280;49071;0.000;0.000;2023-02-24T19:12:22;98924.19;;;18.56;37.86
62976;BME280;49071;0.000;0.000;2023-02-24T19:15:23;98919.19;;;18.53;37.83
62976;BME280;49071;0.000;0.000;2023-02-24T19:18:23;98919.44;;;18.50;37.78
62976;BME280;49071;0.000;0.000;2023-02-24T19:21:23;98919.75;;;18.45;38.11
62976;BME280;49071;0.000;0.000;2023-02-24T19:24:24;98924.41;;;18.41;38.16
62976;BME280;49071;0.000;0.000;2023-02-24T19:27:24;98911.88;;;18.34;38.25
62976;BME280;49071;0.000;0.000;2023-02-24T19:30:24;98922.59;;;18.31;38.57
62976;BME280;49071;0.000;0.000;2023-02-24T19:33:24;98915.94;;;18.27;38.32
62976;BME280;49071;0.000;0.000;2023-02-24T19:36:25;98911.75;;;18.24;38.43
62976;BME280;49071;0.000;0.000;2023-02-24T19:39:25;98904.00;;;18.23;38.35
62976;BME280;49071;0.000;0.000;2023-02-24T19:42:25;98909.84;;;18.26;38.51
62976;BME280;49071;0.000;0.000;2023-02-24T19:45:25;98906.03;;;18.30;38.88
62976;BME280;49071;0.000;0.000;2023-02-24T19:48:26;98900.31;;;18.36;38.77
62976;BME280;49071;0.000;0.000;2023-02-24T19:51:26;98904.25;;;18.42;38.51
62976;BME280;49071;0.000;0.000;2023-02-24T19:54:26;98899.34;;;18.49;38.52
62976;BME280;49071;0.000;0.000;2023-02-24T19:57:27;98895.91;;;18.59;38.45
62976;BME280;49071;0.000;0.000;2023-02-24T20:00:28;98891.28;;;18.63;38.25
62976;BME280;49071;0.000;0.000;2023-02-24T20:03:29;98879.44;;;18.69;38.41
62976;BME280;49071;0.000;0.000;2023-02-24T20:06:36;98887.72;;;18.75;38.19
62976;BME280;49071;0.000;0.000;2023-02-24T20:09:39;98884.38;;;18.84;38.02
62976;BME280;49071;0.000;0.000;2023-02-24T20:12:39;98880.31;;;18.92;38.01
62976;BME280;49071;0.000;0.000;2023-02-24T20:15:39;98877.44;;;18.95;37.86
62976;BME280;49071;0.000;0.000;2023-02-24T20:18:39;98877.06;;;18.99;37.75
62976;BME280;49071;0.000;0.000;2023-02-24T20:21:40;98865.47;;;19.02;37.86
62976;BME280;49071;0.000;0.000;2023-02-24T20:24:40;98861.88;;;19.03;37.57
62976;BME280;49071;0.000;0.000;2023-02-24T20:27:40;98866.31;;;19.02;37.64
62976;BME280;49071;0.000;0.000;2023-02-24T20:30:41;98859.50;;;19.00;37.92
62976;BME280;49071;0.000;0.000;2023-02-24T20:33:41;98860.00;;;18.94;37.90
62976;BME280;49071;0.000;0.000;2023-02-24T20:36:42;98858.31;;;18.93;37.76
62976;BME280;49071;0.000;0.000;2023-02-24T20:39:42;98855.94;;;18.90;38.03
62976;BME280;49071;0.000;0.000;2023-02-24T20:42:43;98860.50;;;18.87;37.87
62976;BME280;49071;0.000;0.000;2023-02-24T20:45:43;98846.88;;;18.82;38.12
62976;BME280;49071;0.000;0.000;2023-02-24T20:48:43;98835.91;;;18.77;38.16
62976;BME280;49071;0.000;0.000;2023-02-24T20:51:43;98838.78;;;18.74;38.24
62976;BME280;49071;0.000;0.000;2023-02-24T20:54:44;98835.75;;;18.68;38.11
62976;BME280;49071;0.000;0.000;2023-02-24T20:57:44;98832.06;;;18.59;38.05
62976;BME280;49071;0.000;0.000;2023-02-24T21:00:44;98832.78;;;18.50;38.15
62976;BME280;49071;0.000;0.000;2023-02-24T21:03:45;98820.84;;;18.46;38.10
62976;BME280;49071;0.000;0.000;2023-02-24T21:06:46;98824.78;;;18.40;38.09
62976;BME280;49071;0.000;0.000;2023-02-24T21:09:46;98822.50;;;18.35;38.10
62976;BME280;49071;0.000;0.000;2023-02-24T21:12:47;98817.88;;;18.28;38.33
62976;BME280;49071;0.000;0.000;2023-02-24T21:15:49;98817.03;;;18.27;38.21
62976;BME280;49071;0.000;0.000;2023-02-24T21:18:51;98818.69;;;18.28;38.47
62976;BME280;49071;0.000;0.000;2023-02-24T21:21:52;98815.00;;;18.31;38.21
62976;BME280;49071;0.000;0.000;2023-02-24T21:24:52;98806.66;;;18.37;38.26
62976;BME280;49071;0.000;0.000;2023-02-24T21:27:53;98796.50;;;18.44;38.33
62976;BME280;49071;0.000;0.000;2023-02-24T21:30:54;98793.66;;;18.47;38.14
62976;BME280;49071;0.000;0.000;2023-02-24T21:33:54;98792.22;;;18.54;37.70
